Time,TemperatureF,DewpointF,PressureIn,WindDirection,WindDirectionDegrees,WindSpeedMPH,WindSpeedGustMPH,Humidity,HourlyPrecipIn,Conditions,Clouds,dailyrainin,SoftwareType,DateUTC
2013-06-22 00:01:00,63.1,58.8,30.17,SSW,196,0.0,0.0,86,0.00,,,0.00,Wunderground v.1.15,2013-06-22 04:01:00,
2013-06-22 00:02:00,63.1,58.8,30.17,SSW,196,0.0,0.0,86,0.00,,,0.00,Wunderground v.1.15,2013-06-22 04:02:00,
2013-06-22 00:03:00,63.1,58.8,30.17,SSW,196,0.0,0.0,86,0.00,,,0.00,Wunderground v.1.15,2013-06-22 04:03:00,
2013-06-22 00:04:00,63.0,58.7,30.17,SSW,196,0.0,0.0,86,0.00,,,0.00,Wunderground v.1.15,2013-06-22 04:04:00,
2013-06-22 00:07:00,63.0,59.1,30.17,SSW,196,0.0,0.0,87,0.00,,,0.00,Wunderground v.1.15,2013-06-22 04:07:00,
2013-06-22 00:12:00,62.9,59.0,30.17,SSW,196,0.0,0.0,87,0.00,,,0.00,Wunderground v.1.15,2013-06-22 04:12:00,
2013-06-22 00:18:00,62.7,58.8,30.17,SSW,196,0.0,0.0,87,0.00,,,0.00,Wunderground v.1.15,2013-06-22 04:18:00,
2013-06-22 00:23:00,62.6,59.0,30.17,SSW,196,0.0,0.0,88,0.00,,,0.00,Wunderground v.1.15,2013-06-22 04:23:00,
2013-06-22 00:28:00,62.5,58.9,30.16,SSW,196,0.0,0.0,88,0.00,,,0.00,Wunderground v.1.15,2013-06-22 04:28:00,
2013-06-22 00:34:00,62.4,58.8,30.16,SSW,196,0.0,0.0,88,0.00,,,0.00,Wunderground v.1.15,2013-06-22 04:34:00,
2013-06-22 00:39:00,62.3,59.0,30.17,SSW,196,0.0,0.0,89,0.00,,,0.00,Wunderground v.1.15,2013-06-22 04:39:00,
2013-06-22 00:45:00,62.1,58.5,30.17,SSW,196,0.0,0.0,88,0.00,,,0.00,Wunderground v.1.15,2013-06-22 04:45:00,
2013-06-22 00:50:00,62.0,58.7,30.17,SSW,196,0.0,0.0,89,0.00,,,0.00,Wunderground v.1.15,2013-06-22 04:50:00,
2013-06-22 00:56:00,61.9,58.6,30.17,SSW,196,0.0,0.0,89,0.00,,,0.00,Wunderground v.1.15,2013-06-22 04:56:00,
2013-06-22 01:01:00,61.8,58.5,30.17,SSW,196,0.0,0.0,89,0.00,,,0.00,Wunderground v.1.15,2013-06-22 05:01:00,
2013-06-22 01:07:00,61.7,58.7,30.17,SSW,196,0.0,0.0,90,0.00,,,0.00,Wunderground v.1.15,2013-06-22 05:07:00,
2013-06-22 01:12:00,61.8,59.1,30.17,SSW,196,0.0,0.0,91,0.00,,,0.00,Wunderground v.1.15,2013-06-22 05:12:00,
2013-06-22 01:18:00,61.7,58.7,30.17,SSW,196,0.0,0.0,90,0.00,,,0.00,Wunderground v.1.15,2013-06-22 05:18:00,
2013-06-22 01:23:00,61.6,58.6,30.17,SSW,196,0.0,0.0,90,0.00,,,0.00,Wunderground v.1.15,2013-06-22 05:23:00,
2013-06-22 01:29:00,61.4,58.4,30.17,SSW,196,0.0,0.0,90,0.00,,,0.00,Wunderground v.1.15,2013-06-22 05:29:00,
2013-06-22 01:34:00,61.3,58.3,30.17,SSW,196,0.0,0.0,90,0.00,,,0.00,Wunderground v.1.15,2013-06-22 05:34:00,
2013-06-22 01:40:00,61.2,58.6,30.17,SSW,196,0.0,0.0,91,0.00,,,0.00,Wunderground v.1.15,2013-06-22 05:40:00,
2013-06-22 01:45:00,61.1,58.5,30.17,SSW,196,0.0,0.0,91,0.00,,,0.00,Wunderground v.1.15,2013-06-22 05:45:00,
2013-06-22 01:51:00,61.0,58.4,30.17,SSW,196,0.0,0.0,91,0.00,,,0.00,Wunderground v.1.15,2013-06-22 05:51:00,
2013-06-22 01:57:00,60.9,58.3,30.17,SSW,196,0.0,0.0,91,0.00,,,0.00,Wunderground v.1.15,2013-06-22 05:57:00,
2013-06-22 02:03:00,60.8,58.5,30.17,SSW,196,0.0,0.0,92,0.00,,,0.00,Wunderground v.1.15,2013-06-22 06:03:00,
2013-06-22 02:08:00,60.8,58.5,30.16,SSW,196,0.0,0.0,92,0.00,,,0.00,Wunderground v.1.15,2013-06-22 06:08:00,
2013-06-22 02:14:00,60.7,58.4,30.16,SSW,196,0.0,0.0,92,0.00,,,0.00,Wunderground v.1.15,2013-06-22 06:14:00,
2013-06-22 02:19:00,60.6,58.3,30.16,SSW,196,0.0,0.0,92,0.00,,,0.00,Wunderground v.1.15,2013-06-22 06:19:00,
2013-06-22 02:24:00,60.5,58.2,30.17,SSW,196,0.0,0.0,92,0.00,,,0.00,Wunderground v.1.15,2013-06-22 06:24:00,
2013-06-22 02:30:00,60.4,58.1,30.16,SSW,196,0.0,0.0,92,0.00,,,0.00,Wunderground v.1.15,2013-06-22 06:30:00,
2013-06-22 02:35:00,60.3,58.0,30.16,SSW,196,0.0,0.0,92,0.00,,,0.00,Wunderground v.1.15,2013-06-22 06:35:00,
2013-06-22 02:41:00,60.3,58.3,30.16,SSW,196,0.0,0.0,93,0.00,,,0.00,Wunderground v.1.15,2013-06-22 06:41:00,
2013-06-22 02:46:00,60.2,58.2,30.16,SSW,196,0.0,0.0,93,0.00,,,0.00,Wunderground v.1.15,2013-06-22 06:46:00,
2013-06-22 02:51:00,60.1,57.8,30.16,SSW,196,0.0,0.0,92,0.00,,,0.00,Wunderground v.1.15,2013-06-22 06:51:00,
2013-06-22 02:57:00,60.0,58.0,30.16,SSW,196,0.0,0.0,93,0.00,,,0.00,Wunderground v.1.15,2013-06-22 06:57:00,
2013-06-22 03:03:00,59.9,57.9,30.16,SSW,196,0.0,0.0,93,0.00,,,0.00,Wunderground v.1.15,2013-06-22 07:03:00,
2013-06-22 03:08:00,59.9,57.9,30.16,SSW,196,0.0,0.0,93,0.00,,,0.00,Wunderground v.1.15,2013-06-22 07:08:00,
2013-06-22 03:13:00,59.9,57.9,30.16,SSW,196,0.0,0.0,93,0.00,,,0.00,Wunderground v.1.15,2013-06-22 07:13:00,
2013-06-22 03:19:00,59.8,57.8,30.16,SSW,196,0.0,0.0,93,0.00,,,0.00,Wunderground v.1.15,2013-06-22 07:19:00,
2013-06-22 03:24:00,59.6,57.6,30.16,SSW,196,0.0,0.0,93,0.00,,,0.00,Wunderground v.1.15,2013-06-22 07:24:00,
2013-06-22 03:30:00,59.5,57.5,30.16,SSW,196,0.0,0.0,93,0.00,,,0.00,Wunderground v.1.15,2013-06-22 07:30:00,
2013-06-22 03:36:00,59.5,57.5,30.15,SSW,196,0.0,0.0,93,0.00,,,0.00,Wunderground v.1.15,2013-06-22 07:36:00,
2013-06-22 03:41:00,59.4,57.7,30.15,SSW,196,0.0,0.0,94,0.00,,,0.00,Wunderground v.1.15,2013-06-22 07:41:00,
2013-06-22 03:47:00,59.5,57.8,30.15,SSW,196,0.0,0.0,94,0.00,,,0.00,Wunderground v.1.15,2013-06-22 07:47:00,
2013-06-22 03:52:00,59.3,57.3,30.15,SSW,196,0.0,0.0,93,0.00,,,0.00,Wunderground v.1.15,2013-06-22 07:52:00,
2013-06-22 03:58:00,59.2,57.2,30.14,SSW,196,0.0,0.0,93,0.00,,,0.00,Wunderground v.1.15,2013-06-22 07:58:00,
2013-06-22 04:04:00,59.1,57.4,30.14,SSW,196,0.0,0.0,94,0.00,,,0.00,Wunderground v.1.15,2013-06-22 08:04:00,
2013-06-22 04:09:00,59.1,57.4,30.14,SSW,196,0.0,0.0,94,0.00,,,0.00,Wunderground v.1.15,2013-06-22 08:09:00,
2013-06-22 04:14:00,59.0,57.3,30.14,SSW,196,0.0,0.0,94,0.00,,,0.00,Wunderground v.1.15,2013-06-22 08:14:00,
2013-06-22 04:20:00,58.9,57.2,30.14,SSW,196,0.0,0.0,94,0.00,,,0.00,Wunderground v.1.15,2013-06-22 08:20:00,
2013-06-22 04:26:00,58.9,57.2,30.15,SSW,196,0.0,0.0,94,0.00,,,0.00,Wunderground v.1.15,2013-06-22 08:26:00,
2013-06-22 04:32:00,58.8,57.1,30.14,SSW,196,0.0,0.0,94,0.00,,,0.00,Wunderground v.1.15,2013-06-22 08:32:00,
2013-06-22 04:37:00,58.8,57.1,30.15,SSW,196,0.0,0.0,94,0.00,,,0.00,Wunderground v.1.15,2013-06-22 08:37:00,
2013-06-22 04:42:00,58.7,57.0,30.14,SSW,196,0.0,0.0,94,0.00,,,0.00,Wunderground v.1.15,2013-06-22 08:42:00,
2013-06-22 04:48:00,58.7,57.0,30.14,SSW,196,0.0,0.0,94,0.00,,,0.00,Wunderground v.1.15,2013-06-22 08:48:00,
2013-06-22 04:53:00,58.6,56.9,30.14,SSW,196,0.0,0.0,94,0.00,,,0.00,Wunderground v.1.15,2013-06-22 08:53:00,
2013-06-22 04:58:00,58.6,56.9,30.14,SSW,196,0.0,0.0,94,0.00,,,0.00,Wunderground v.1.15,2013-06-22 08:58:00,
2013-06-22 05:04:00,58.6,56.9,30.14,SSW,196,0.0,0.0,94,0.00,,,0.00,Wunderground v.1.15,2013-06-22 09:04:00,
2013-06-22 05:10:00,58.5,56.8,30.14,SSW,196,0.0,0.0,94,0.00,,,0.00,Wunderground v.1.15,2013-06-22 09:10:00,
2013-06-22 05:15:00,58.4,56.7,30.14,SSW,196,0.0,0.0,94,0.00,,,0.00,Wunderground v.1.15,2013-06-22 09:15:00,
2013-06-22 05:21:00,58.3,56.6,30.13,SSW,196,0.0,0.0,94,0.00,,,0.00,Wunderground v.1.15,2013-06-22 09:21:00,
2013-06-22 05:27:00,58.2,56.5,30.13,SSW,196,0.0,0.0,94,0.00,,,0.00,Wunderground v.1.15,2013-06-22 09:27:00,
2013-06-22 05:32:00,58.2,56.8,30.13,SSW,196,0.0,0.0,95,0.00,,,0.00,Wunderground v.1.15,2013-06-22 09:32:00,
2013-06-22 05:38:00,58.3,56.9,30.14,SSW,196,0.0,0.0,95,0.00,,,0.00,Wunderground v.1.15,2013-06-22 09:38:00,
2013-06-22 05:43:00,58.2,56.5,30.14,SSW,196,0.0,0.0,94,0.00,,,0.00,Wunderground v.1.15,2013-06-22 09:43:00,
2013-06-22 05:49:00,58.1,56.4,30.14,SSW,196,0.0,0.0,94,0.00,,,0.00,Wunderground v.1.15,2013-06-22 09:49:00,
2013-06-22 05:54:00,58.0,56.3,30.14,SSW,196,0.0,0.0,94,0.00,,,0.00,Wunderground v.1.15,2013-06-22 09:54:00,
2013-06-22 06:00:00,58.1,56.7,30.14,SSW,196,0.0,0.0,95,0.00,,,0.00,Wunderground v.1.15,2013-06-22 10:00:00,
2013-06-22 06:05:00,58.3,56.9,30.14,SSW,196,0.0,0.0,95,0.00,,,0.00,Wunderground v.1.15,2013-06-22 10:05:00,
2013-06-22 06:11:00,58.4,57.0,30.14,SSW,196,0.0,0.0,95,0.00,,,0.00,Wunderground v.1.15,2013-06-22 10:11:00,
2013-06-22 06:16:00,58.4,57.0,30.14,SSW,196,0.0,0.0,95,0.00,,,0.00,Wunderground v.1.15,2013-06-22 10:16:00,
2013-06-22 06:21:00,58.3,56.9,30.14,SSW,196,0.0,0.0,95,0.00,,,0.00,Wunderground v.1.15,2013-06-22 10:21:00,
2013-06-22 06:27:00,58.3,56.9,30.14,SSW,196,0.0,0.0,95,0.00,,,0.00,Wunderground v.1.15,2013-06-22 10:27:00,
2013-06-22 06:32:00,58.3,56.9,30.14,SSW,196,0.0,0.0,95,0.00,,,0.00,Wunderground v.1.15,2013-06-22 10:32:00,
2013-06-22 06:38:00,58.3,56.9,30.14,SSW,196,0.0,0.0,95,0.00,,,0.00,Wunderground v.1.15,2013-06-22 10:38:00,
2013-06-22 06:43:00,58.4,57.0,30.14,SSW,196,0.0,0.0,95,0.00,,,0.00,Wunderground v.1.15,2013-06-22 10:43:00,
2013-06-22 06:48:00,58.6,57.2,30.14,SSW,196,0.0,0.0,95,0.00,,,0.00,Wunderground v.1.15,2013-06-22 10:48:00,
2013-06-22 06:54:00,58.9,57.5,30.15,SSW,196,0.0,0.0,95,0.00,,,0.00,Wunderground v.1.15,2013-06-22 10:54:00,
2013-06-22 06:59:00,59.1,58.0,30.15,SSW,196,0.0,0.0,96,0.00,,,0.00,Wunderground v.1.15,2013-06-22 10:59:00,
2013-06-22 07:05:00,59.6,58.5,30.15,SSW,196,0.0,0.0,96,0.00,,,0.00,Wunderground v.1.15,2013-06-22 11:05:00,
2013-06-22 07:10:00,60.0,58.9,30.15,SSW,196,0.0,0.0,96,0.00,,,0.00,Wunderground v.1.15,2013-06-22 11:10:00,
2013-06-22 07:16:00,60.2,59.1,30.15,SSW,196,0.0,0.0,96,0.00,,,0.00,Wunderground v.1.15,2013-06-22 11:16:00,
2013-06-22 07:22:00,60.6,59.5,30.16,SSW,196,0.0,0.0,96,0.00,,,0.00,Wunderground v.1.15,2013-06-22 11:22:00,
2013-06-22 07:28:00,61.1,60.0,30.16,SSW,196,0.0,0.0,96,0.00,,,0.00,Wunderground v.1.15,2013-06-22 11:28:00,
2013-06-22 07:33:00,61.4,60.2,30.16,South,191,0.0,0.0,96,0.00,,,0.00,Wunderground v.1.15,2013-06-22 11:33:00,
2013-06-22 07:39:00,62.0,60.8,30.16,South,191,0.0,0.0,96,0.00,,,0.00,Wunderground v.1.15,2013-06-22 11:39:00,
2013-06-22 07:44:00,62.6,61.4,30.17,South,191,0.0,0.0,96,0.00,,,0.00,Wunderground v.1.15,2013-06-22 11:44:00,
2013-06-22 07:50:00,63.5,62.0,30.17,South,191,0.0,0.0,95,0.00,,,0.00,Wunderground v.1.15,2013-06-22 11:50:00,
2013-06-22 07:55:00,64.4,62.6,30.17,South,191,0.0,0.0,94,0.00,,,0.00,Wunderground v.1.15,2013-06-22 11:55:00,
2013-06-22 08:00:00,65.5,63.1,30.17,South,191,0.0,0.0,92,0.00,,,0.00,Wunderground v.1.15,2013-06-22 12:00:00,
2013-06-22 08:06:00,66.5,63.8,30.17,SSE,167,0.0,1.0,91,0.00,,,0.00,Wunderground v.1.15,2013-06-22 12:06:00,
2013-06-22 08:11:00,67.5,64.1,30.17,SSE,152,0.0,0.0,89,0.00,,,0.00,Wunderground v.1.15,2013-06-22 12:11:00,
2013-06-22 08:17:00,68.5,64.1,30.17,SE,124,0.0,1.0,86,0.00,,,0.00,Wunderground v.1.15,2013-06-22 12:17:00,
2013-06-22 08:22:00,69.3,64.6,30.17,East,98,0.0,0.0,85,0.00,,,0.00,Wunderground v.1.15,2013-06-22 12:22:00,
2013-06-22 08:28:00,70.1,65.0,30.17,East,98,0.0,1.0,84,0.00,,,0.00,Wunderground v.1.15,2013-06-22 12:28:00,
2013-06-22 08:33:00,70.8,65.0,30.18,ESE,115,0.0,0.0,82,0.00,,,0.00,Wunderground v.1.15,2013-06-22 12:33:00,
2013-06-22 08:39:00,71.5,65.7,30.18,East,101,0.0,1.0,82,0.00,,,0.00,Wunderground v.1.15,2013-06-22 12:39:00,
2013-06-22 08:44:00,72.1,65.2,30.18,ESE,102,0.0,2.0,79,0.00,,,0.00,Wunderground v.1.15,2013-06-22 12:44:00,
2013-06-22 08:50:00,72.7,65.8,30.18,ESE,123,0.0,0.0,79,0.00,,,0.00,Wunderground v.1.15,2013-06-22 12:50:00,
2013-06-22 08:55:00,73.3,65.7,30.18,SE,141,0.0,1.0,77,0.00,,,0.00,Wunderground v.1.15,2013-06-22 12:55:00,
2013-06-22 09:00:00,73.7,65.7,30.19,ESE,110,0.0,1.0,76,0.00,,,0.00,Wunderground v.1.15,2013-06-22 13:00:00,
2013-06-22 09:05:00,74.0,65.6,30.19,South,182,1.0,2.0,75,0.00,,,0.00,Wunderground v.1.15,2013-06-22 13:05:00,
2013-06-22 09:11:00,74.2,66.5,30.19,East,97,1.0,1.0,77,0.00,,,0.00,Wunderground v.1.15,2013-06-22 13:11:00,
2013-06-22 09:17:00,74.6,65.4,30.19,ESE,103,1.0,3.0,73,0.00,,,0.00,Wunderground v.1.15,2013-06-22 13:17:00,
2013-06-22 09:22:00,75.0,66.1,30.19,ESE,114,1.0,3.0,74,0.00,,,0.00,Wunderground v.1.15,2013-06-22 13:22:00,
2013-06-22 09:28:00,75.2,65.9,30.19,ESE,116,1.0,3.0,73,0.00,,,0.00,Wunderground v.1.15,2013-06-22 13:28:00,
2013-06-22 09:33:00,75.5,67.0,30.19,SE,144,1.0,2.0,75,0.00,,,0.00,Wunderground v.1.15,2013-06-22 13:33:00,
2013-06-22 09:39:00,76.0,67.1,30.19,ESE,107,1.0,2.0,74,0.00,,,0.00,Wunderground v.1.15,2013-06-22 13:39:00,
2013-06-22 09:44:00,76.3,66.2,30.19,ESE,115,1.0,4.0,71,0.00,,,0.00,Wunderground v.1.15,2013-06-22 13:44:00,
2013-06-22 09:49:00,76.6,67.3,30.19,ESE,114,1.0,4.0,73,0.00,,,0.00,Wunderground v.1.15,2013-06-22 13:49:00,
2013-06-22 09:55:00,77.2,66.7,30.19,ESE,105,0.0,1.0,70,0.00,,,0.00,Wunderground v.1.15,2013-06-22 13:55:00,
2013-06-22 10:00:00,77.6,67.0,30.19,ESE,115,1.0,1.0,70,0.00,,,0.00,Wunderground v.1.15,2013-06-22 14:00:00,
2013-06-22 10:06:00,77.8,67.6,30.18,ESE,118,1.0,2.0,71,0.00,,,0.00,Wunderground v.1.15,2013-06-22 14:06:00,
2013-06-22 10:11:00,78.4,67.4,30.19,SE,138,1.0,1.0,69,0.00,,,0.00,Wunderground v.1.15,2013-06-22 14:11:00,
2013-06-22 10:17:00,79.1,69.7,30.19,SSE,153,0.0,1.0,73,0.00,,,0.00,Wunderground v.1.15,2013-06-22 14:17:00,
2013-06-22 10:22:00,79.6,67.2,30.18,SE,128,1.0,2.0,66,0.00,,,0.00,Wunderground v.1.15,2013-06-22 14:22:00,
2013-06-22 10:28:00,79.8,67.4,30.18,ESE,119,1.0,3.0,66,0.00,,,0.00,Wunderground v.1.15,2013-06-22 14:28:00,
2013-06-22 10:33:00,79.9,67.5,30.18,SSE,165,1.0,2.0,66,0.00,,,0.00,Wunderground v.1.15,2013-06-22 14:33:00,
2013-06-22 10:39:00,80.0,68.1,30.18,ESE,107,1.0,4.0,67,0.00,,,0.00,Wunderground v.1.15,2013-06-22 14:39:00,
2013-06-22 10:44:00,80.0,68.1,30.18,ESE,113,1.0,3.0,67,0.00,,,0.00,Wunderground v.1.15,2013-06-22 14:44:00,
2013-06-22 10:50:00,79.8,67.9,30.18,ESE,108,1.0,1.0,67,0.00,,,0.00,Wunderground v.1.15,2013-06-22 14:50:00,
2013-06-22 10:55:00,79.9,68.0,30.18,SE,142,0.0,1.0,67,0.00,,,0.00,Wunderground v.1.15,2013-06-22 14:55:00,
2013-06-22 11:00:00,79.9,68.0,30.18,ESE,111,0.0,0.0,67,0.00,,,0.00,Wunderground v.1.15,2013-06-22 15:00:00,
2013-06-22 11:05:00,80.4,68.4,30.18,ESE,111,0.0,1.0,67,0.00,,,0.00,Wunderground v.1.15,2013-06-22 15:05:00,
2013-06-22 11:11:00,81.1,69.5,30.19,ESE,113,0.0,1.0,68,0.00,,,0.00,Wunderground v.1.15,2013-06-22 15:11:00,
2013-06-22 11:17:00,81.5,69.5,30.18,SE,142,0.0,2.0,67,0.00,,,0.00,Wunderground v.1.15,2013-06-22 15:17:00,
2013-06-22 11:22:00,81.8,68.4,30.18,ESE,103,1.0,2.0,64,0.00,,,0.00,Wunderground v.1.15,2013-06-22 15:22:00,
2013-06-22 11:28:00,82.1,68.3,30.18,ESE,111,1.0,3.0,63,0.00,,,0.00,Wunderground v.1.15,2013-06-22 15:28:00,
2013-06-22 11:33:00,82.2,68.3,30.18,ESE,115,1.0,1.0,63,0.00,,,0.00,Wunderground v.1.15,2013-06-22 15:33:00,
2013-06-22 11:39:00,82.4,69.9,30.18,East,98,1.0,2.0,66,0.00,,,0.00,Wunderground v.1.15,2013-06-22 15:39:00,
2013-06-22 11:44:00,82.9,70.4,30.18,ESE,103,1.0,3.0,66,0.00,,,0.00,Wunderground v.1.15,2013-06-22 15:44:00,
2013-06-22 11:50:00,83.4,70.8,30.18,SE,135,1.0,1.0,66,0.00,,,0.00,Wunderground v.1.15,2013-06-22 15:50:00,
2013-06-22 11:55:00,84.1,70.6,30.18,ESE,115,0.0,2.0,64,0.00,,,0.00,Wunderground v.1.15,2013-06-22 15:55:00,
2013-06-22 12:00:00,84.3,69.9,30.18,East,99,1.0,1.0,62,0.00,,,0.00,Wunderground v.1.15,2013-06-22 16:00:00,
2013-06-22 12:06:00,84.4,68.5,30.18,South,182,1.0,5.0,59,0.00,,,0.00,Wunderground v.1.15,2013-06-22 16:06:00,
2013-06-22 12:12:00,84.3,70.8,30.17,ESE,117,1.0,2.0,64,0.00,,,0.00,Wunderground v.1.15,2013-06-22 16:12:00,
2013-06-22 12:18:00,84.6,69.7,30.17,ESE,114,1.0,4.0,61,0.00,,,0.00,Wunderground v.1.15,2013-06-22 16:18:00,
2013-06-22 12:23:00,84.9,69.5,30.17,SE,124,1.0,4.0,60,0.00,,,0.00,Wunderground v.1.15,2013-06-22 16:23:00,
2013-06-22 12:28:00,85.0,69.6,30.17,NE,55,1.0,4.0,60,0.00,,,0.00,Wunderground v.1.15,2013-06-22 16:28:00,
2013-06-22 12:34:00,85.1,70.1,30.17,ESE,113,1.0,1.0,61,0.00,,,0.00,Wunderground v.1.15,2013-06-22 16:34:00,
2013-06-22 12:40:00,85.2,70.2,30.17,ESE,103,1.0,2.0,61,0.00,,,0.00,Wunderground v.1.15,2013-06-22 16:40:00,
2013-06-22 12:45:00,85.0,69.1,30.17,ENE,66,2.0,4.0,59,0.00,,,0.00,Wunderground v.1.15,2013-06-22 16:45:00,
2013-06-22 12:51:00,84.2,72.5,30.17,ESE,115,1.0,1.0,68,0.00,,,0.00,Wunderground v.1.15,2013-06-22 16:51:00,
2013-06-22 12:56:00,83.6,72.3,30.17,ESE,115,0.0,1.0,69,0.00,,,0.00,Wunderground v.1.15,2013-06-22 16:56:00,
2013-06-22 13:01:00,83.7,69.8,30.17,ESE,104,1.0,2.0,63,0.00,,,0.00,Wunderground v.1.15,2013-06-22 17:01:00,
2013-06-22 13:07:00,83.8,70.8,30.16,ESE,104,1.0,2.0,65,0.00,,,0.00,Wunderground v.1.15,2013-06-22 17:07:00,
2013-06-22 13:12:00,83.6,72.3,30.16,ESE,104,0.0,0.0,69,0.00,,,0.00,Wunderground v.1.15,2013-06-22 17:12:00,
2013-06-22 13:18:00,84.0,71.0,30.16,ENE,74,1.0,3.0,65,0.00,,,0.00,Wunderground v.1.15,2013-06-22 17:18:00,
2013-06-22 13:24:00,84.2,72.9,30.16,ESE,120,1.0,1.0,69,0.00,,,0.00,Wunderground v.1.15,2013-06-22 17:24:00,
2013-06-22 13:29:00,83.9,72.2,30.15,ESE,120,0.0,2.0,68,0.00,,,0.00,Wunderground v.1.15,2013-06-22 17:29:00,
2013-06-22 13:35:00,84.4,70.0,30.15,ESE,119,1.0,3.0,62,0.00,,,0.00,Wunderground v.1.15,2013-06-22 17:35:00,
2013-06-22 13:40:00,85.2,70.2,30.15,South,175,1.0,1.0,61,0.00,,,0.00,Wunderground v.1.15,2013-06-22 17:40:00,
2013-06-22 13:45:00,85.7,71.2,30.14,ENE,76,1.0,1.0,62,0.00,,,0.00,Wunderground v.1.15,2013-06-22 17:45:00,
2013-06-22 13:51:00,86.2,70.7,30.15,ESE,123,1.0,1.0,60,0.00,,,0.00,Wunderground v.1.15,2013-06-22 17:51:00,
2013-06-22 13:56:00,85.7,71.7,30.15,NNE,27,1.0,1.0,63,0.00,,,0.00,Wunderground v.1.15,2013-06-22 17:56:00,
2013-06-22 14:02:00,84.6,71.5,30.15,NNE,27,0.0,0.0,65,0.00,,,0.00,Wunderground v.1.15,2013-06-22 18:02:00,
2013-06-22 14:07:00,84.3,69.9,30.15,ESE,111,0.0,4.0,62,0.00,,,0.00,Wunderground v.1.15,2013-06-22 18:07:00,
2013-06-22 14:13:00,85.1,71.1,30.14,East,79,1.0,1.0,63,0.00,,,0.00,Wunderground v.1.15,2013-06-22 18:13:00,
2013-06-22 14:18:00,85.8,72.7,30.14,SW,215,1.0,1.0,65,0.00,,,0.00,Wunderground v.1.15,2013-06-22 18:18:00,
2013-06-22 14:24:00,85.5,70.5,30.14,NE,44,0.0,4.0,61,0.00,,,0.00,Wunderground v.1.15,2013-06-22 18:24:00,
2013-06-22 14:29:00,85.0,71.9,30.14,South,185,0.0,4.0,65,0.00,,,0.00,Wunderground v.1.15,2013-06-22 18:29:00,
2013-06-22 14:35:00,85.5,70.0,30.14,ESE,111,1.0,3.0,60,0.00,,,0.00,Wunderground v.1.15,2013-06-22 18:35:00,
2013-06-22 14:40:00,85.7,69.7,30.14,East,92,1.0,1.0,59,0.00,,,0.00,Wunderground v.1.15,2013-06-22 18:40:00,
2013-06-22 14:46:00,85.6,70.6,30.14,South,170,0.0,1.0,61,0.00,,,0.00,Wunderground v.1.15,2013-06-22 18:46:00,
2013-06-22 14:51:00,85.7,72.1,30.14,East,98,0.0,0.0,64,0.00,,,0.00,Wunderground v.1.15,2013-06-22 18:51:00,
2013-06-22 14:56:00,85.1,70.6,30.14,East,99,0.0,0.0,62,0.00,,,0.00,Wunderground v.1.15,2013-06-22 18:56:00,
2013-06-22 15:02:00,84.7,69.8,30.13,ENE,77,0.0,1.0,61,0.00,,,0.00,Wunderground v.1.15,2013-06-22 19:02:00,
2013-06-22 15:07:00,84.4,73.1,30.13,ENE,78,0.0,1.0,69,0.00,,,0.00,Wunderground v.1.15,2013-06-22 19:07:00,
2013-06-22 15:13:00,83.6,70.6,30.13,ESE,113,0.0,2.0,65,0.00,,,0.00,Wunderground v.1.15,2013-06-22 19:13:00,
2013-06-22 15:19:00,84.0,71.4,30.13,ESE,113,0.0,2.0,66,0.00,,,0.00,Wunderground v.1.15,2013-06-22 19:19:00,
2013-06-22 15:24:00,84.7,72.1,30.13,East,90,0.0,1.0,66,0.00,,,0.00,Wunderground v.1.15,2013-06-22 19:24:00,
2013-06-22 15:30:00,85.3,70.3,30.13,South,170,1.0,1.0,61,0.00,,,0.00,Wunderground v.1.15,2013-06-22 19:30:00,
2013-06-22 15:35:00,85.2,69.3,30.13,ESE,115,1.0,2.0,59,0.00,,,0.00,Wunderground v.1.15,2013-06-22 19:35:00,
2013-06-22 15:40:00,85.4,71.4,30.13,ENE,58,1.0,1.0,63,0.00,,,0.00,Wunderground v.1.15,2013-06-22 19:40:00,
2013-06-22 15:46:00,84.7,71.2,30.12,NE,44,0.0,1.0,64,0.00,,,0.00,Wunderground v.1.15,2013-06-22 19:46:00,
2013-06-22 15:51:00,84.2,68.8,30.12,SSE,148,0.0,1.0,60,0.00,,,0.00,Wunderground v.1.15,2013-06-22 19:51:00,
2013-06-22 15:57:00,84.1,69.7,30.12,ESE,111,0.0,1.0,62,0.00,,,0.00,Wunderground v.1.15,2013-06-22 19:57:00,
2013-06-22 16:02:00,83.9,72.2,30.12,NNE,20,0.0,0.0,68,0.00,,,0.00,Wunderground v.1.15,2013-06-22 20:02:00,
2013-06-22 16:08:00,84.3,71.7,30.11,East,81,0.0,1.0,66,0.00,,,0.00,Wunderground v.1.15,2013-06-22 20:08:00,
2013-06-22 16:13:00,84.2,71.6,30.11,ESE,102,0.0,1.0,66,0.00,,,0.00,Wunderground v.1.15,2013-06-22 20:13:00,
2013-06-22 16:19:00,83.9,69.5,30.11,NE,50,0.0,3.0,62,0.00,,,0.00,Wunderground v.1.15,2013-06-22 20:19:00,
2013-06-22 16:25:00,83.5,69.6,30.10,NNE,30,0.0,0.0,63,0.00,,,0.00,Wunderground v.1.15,2013-06-22 20:25:00,
2013-06-22 16:30:00,83.0,70.0,30.10,NNE,30,0.0,0.0,65,0.00,,,0.00,Wunderground v.1.15,2013-06-22 20:30:00,
2013-06-22 16:35:00,82.9,71.3,30.10,East,96,0.0,1.0,68,0.00,,,0.00,Wunderground v.1.15,2013-06-22 20:35:00,
2013-06-22 16:41:00,82.7,69.3,30.09,SSE,157,0.0,0.0,64,0.00,,,0.00,Wunderground v.1.15,2013-06-22 20:41:00,
2013-06-22 16:47:00,82.8,70.3,30.09,ENE,78,0.0,0.0,66,0.00,,,0.00,Wunderground v.1.15,2013-06-22 20:47:00,
2013-06-22 16:52:00,82.6,69.6,30.09,ESE,121,0.0,0.0,65,0.00,,,0.00,Wunderground v.1.15,2013-06-22 20:52:00,
2013-06-22 16:58:00,82.6,68.3,30.09,South,178,0.0,1.0,62,0.00,,,0.00,Wunderground v.1.15,2013-06-22 20:58:00,
2013-06-22 17:04:00,83.4,69.9,30.08,SE,134,1.0,2.0,64,0.00,,,0.00,Wunderground v.1.15,2013-06-22 21:04:00,
2013-06-22 17:09:00,83.3,68.9,30.08,ESE,106,1.0,2.0,62,0.00,,,0.00,Wunderground v.1.15,2013-06-22 21:09:00,
2013-06-22 17:15:00,83.2,68.8,30.08,SSE,155,1.0,3.0,62,0.00,,,0.00,Wunderground v.1.15,2013-06-22 21:15:00,
2013-06-22 17:20:00,83.0,70.0,30.07,ESE,116,1.0,1.0,65,0.00,,,0.00,Wunderground v.1.15,2013-06-22 21:20:00,
2013-06-22 17:26:00,82.7,69.3,30.07,ENE,57,0.0,3.0,64,0.00,,,0.00,Wunderground v.1.15,2013-06-22 21:26:00,
2013-06-22 17:31:00,82.6,69.6,30.07,ESE,111,1.0,1.0,65,0.00,,,0.00,Wunderground v.1.15,2013-06-22 21:31:00,
2013-06-22 17:37:00,82.1,68.7,30.07,East,85,0.0,1.0,64,0.00,,,0.00,Wunderground v.1.15,2013-06-22 21:37:00,
2013-06-22 17:42:00,81.9,68.5,30.07,ENE,75,0.0,3.0,64,0.00,,,0.00,Wunderground v.1.15,2013-06-22 21:42:00,
2013-06-22 17:47:00,81.7,70.1,30.06,South,190,0.0,3.0,68,0.00,,,0.00,Wunderground v.1.15,2013-06-22 21:47:00,
2013-06-22 17:53:00,81.1,69.1,30.06,SSW,200,0.0,0.0,67,0.00,,,0.00,Wunderground v.1.15,2013-06-22 21:53:00,
2013-06-22 17:59:00,80.8,70.1,30.06,South,182,0.0,1.0,70,0.00,,,0.00,Wunderground v.1.15,2013-06-22 21:59:00,
2013-06-22 18:05:00,80.4,69.7,30.06,ESE,116,0.0,0.0,70,0.00,,,0.00,Wunderground v.1.15,2013-06-22 22:05:00,
2013-06-22 18:10:00,80.0,69.7,30.05,ESE,116,0.0,0.0,71,0.00,,,0.00,Wunderground v.1.15,2013-06-22 22:10:00,
2013-06-22 18:16:00,79.5,70.1,30.05,ESE,116,0.0,0.0,73,0.00,,,0.00,Wunderground v.1.15,2013-06-22 22:16:00,
2013-06-22 18:21:00,79.3,69.5,30.05,ESE,116,0.0,0.0,72,0.00,,,0.00,Wunderground v.1.15,2013-06-22 22:21:00,
2013-06-22 18:26:00,79.1,68.9,30.05,ESE,116,0.0,0.0,71,0.00,,,0.00,Wunderground v.1.15,2013-06-22 22:26:00,
2013-06-22 18:32:00,79.1,69.7,30.05,ESE,116,0.0,0.0,73,0.00,,,0.00,Wunderground v.1.15,2013-06-22 22:32:00,
2013-06-22 18:37:00,79.0,69.6,30.05,ESE,116,0.0,0.0,73,0.00,,,0.00,Wunderground v.1.15,2013-06-22 22:37:00,
2013-06-22 18:43:00,78.9,69.1,30.05,NNE,26,0.0,0.0,72,0.00,,,0.00,Wunderground v.1.15,2013-06-22 22:43:00,
2013-06-22 18:48:00,78.9,69.5,30.05,NNE,26,0.0,0.0,73,0.00,,,0.00,Wunderground v.1.15,2013-06-22 22:48:00,
2013-06-22 18:53:00,78.8,69.4,30.05,NNE,26,0.0,0.0,73,0.00,,,0.00,Wunderground v.1.15,2013-06-22 22:53:00,
2013-06-22 18:59:00,78.7,69.7,30.05,NNE,26,0.0,0.0,74,0.00,,,0.00,Wunderground v.1.15,2013-06-22 22:59:00,
2013-06-22 19:05:00,78.5,69.5,30.05,NNE,26,0.0,0.0,74,0.00,,,0.00,Wunderground v.1.15,2013-06-22 23:05:00,
2013-06-22 19:10:00,78.4,69.0,30.05,NNE,26,0.0,0.0,73,0.00,,,0.00,Wunderground v.1.15,2013-06-22 23:10:00,
2013-06-22 19:15:00,78.5,69.1,30.06,NNE,26,0.0,0.0,73,0.00,,,0.00,Wunderground v.1.15,2013-06-22 23:15:00,
2013-06-22 19:21:00,78.4,70.2,30.06,NNE,26,0.0,0.0,76,0.00,,,0.00,Wunderground v.1.15,2013-06-22 23:21:00,
2013-06-22 19:26:00,78.2,69.2,30.06,NNE,26,0.0,0.0,74,0.00,,,0.00,Wunderground v.1.15,2013-06-22 23:26:00,
2013-06-22 19:31:00,78.1,69.9,30.06,NNE,26,0.0,0.0,76,0.00,,,0.00,Wunderground v.1.15,2013-06-22 23:31:00,
2013-06-22 19:37:00,78.0,70.2,30.06,NNE,26,0.0,0.0,77,0.00,,,0.00,Wunderground v.1.15,2013-06-22 23:37:00,
2013-06-22 19:42:00,77.8,69.2,30.06,NNE,26,0.0,0.0,75,0.00,,,0.00,Wunderground v.1.15,2013-06-22 23:42:00,
2013-06-22 19:48:00,77.6,69.4,30.06,NNE,26,0.0,0.0,76,0.00,,,0.00,Wunderground v.1.15,2013-06-22 23:48:00,
2013-06-22 19:53:00,77.3,68.4,30.06,NNE,26,0.0,0.0,74,0.00,,,0.00,Wunderground v.1.15,2013-06-22 23:53:00,
2013-06-22 19:58:00,77.1,69.3,30.06,NNE,26,0.0,0.0,77,0.00,,,0.00,Wunderground v.1.15,2013-06-22 23:58:00,
2013-06-22 20:04:00,76.8,69.4,30.06,NNE,26,0.0,0.0,78,0.00,,,0.00,Wunderground v.1.15,2013-06-23 00:04:00,
2013-06-22 20:10:00,76.6,69.2,30.06,ESE,103,0.0,0.0,78,0.00,,,0.00,Wunderground v.1.15,2013-06-23 00:10:00,
2013-06-22 20:15:00,76.4,69.4,30.06,ENE,75,0.0,0.0,79,0.00,,,0.00,Wunderground v.1.15,2013-06-23 00:15:00,
2013-06-22 20:21:00,76.2,69.2,30.06,ENE,75,0.0,0.0,79,0.00,,,0.00,Wunderground v.1.15,2013-06-23 00:21:00,
2013-06-22 20:26:00,75.9,69.3,30.06,ENE,75,0.0,0.0,80,0.00,,,0.00,Wunderground v.1.15,2013-06-23 00:26:00,
2013-06-22 20:31:00,75.6,68.6,30.06,ENE,75,0.0,0.0,79,0.00,,,0.00,Wunderground v.1.15,2013-06-23 00:31:00,
2013-06-22 20:37:00,75.2,68.2,30.06,ENE,75,0.0,0.0,79,0.00,,,0.00,Wunderground v.1.15,2013-06-23 00:37:00,
2013-06-22 20:42:00,74.9,68.7,30.06,ENE,75,0.0,0.0,81,0.00,,,0.00,Wunderground v.1.15,2013-06-23 00:42:00,
2013-06-22 20:48:00,74.6,68.4,30.07,ENE,75,0.0,0.0,81,0.00,,,0.00,Wunderground v.1.15,2013-06-23 00:48:00,
2013-06-22 20:53:00,74.4,68.5,30.07,ENE,75,0.0,0.0,82,0.00,,,0.00,Wunderground v.1.15,2013-06-23 00:53:00,
2013-06-22 20:59:00,74.2,68.3,30.07,ENE,75,0.0,0.0,82,0.00,,,0.00,Wunderground v.1.15,2013-06-23 00:59:00,
2013-06-22 21:05:00,74.0,68.5,30.07,ENE,75,0.0,0.0,83,0.00,,,0.00,Wunderground v.1.15,2013-06-23 01:05:00,
2013-06-22 21:11:00,73.8,68.3,30.07,ENE,75,0.0,0.0,83,0.00,,,0.00,Wunderground v.1.15,2013-06-23 01:11:00,
2013-06-22 21:16:00,73.6,68.5,30.07,ENE,75,0.0,0.0,84,0.00,,,0.00,Wunderground v.1.15,2013-06-23 01:16:00,
2013-06-22 21:22:00,73.3,67.8,30.07,ENE,75,0.0,0.0,83,0.00,,,0.00,Wunderground v.1.15,2013-06-23 01:22:00,
2013-06-22 21:27:00,73.2,67.7,30.08,ENE,75,0.0,0.0,83,0.00,,,0.00,Wunderground v.1.15,2013-06-23 01:27:00,
2013-06-22 21:33:00,73.1,68.0,30.08,ENE,75,0.0,0.0,84,0.00,,,0.00,Wunderground v.1.15,2013-06-23 01:33:00,
2013-06-22 21:38:00,73.0,67.9,30.08,ENE,75,0.0,0.0,84,0.00,,,0.00,Wunderground v.1.15,2013-06-23 01:38:00,
2013-06-22 21:43:00,72.8,68.0,30.08,ENE,75,0.0,0.0,85,0.00,,,0.00,Wunderground v.1.15,2013-06-23 01:43:00,
2013-06-22 21:49:00,72.6,67.8,30.09,ENE,75,0.0,0.0,85,0.00,,,0.00,Wunderground v.1.15,2013-06-23 01:49:00,
2013-06-22 21:54:00,72.5,67.7,30.09,ENE,75,0.0,0.0,85,0.00,,,0.00,Wunderground v.1.15,2013-06-23 01:54:00,
2013-06-22 22:00:00,72.3,67.9,30.09,ENE,75,0.0,0.0,86,0.00,,,0.00,Wunderground v.1.15,2013-06-23 02:00:00,
2013-06-22 22:06:00,72.2,67.4,30.09,ENE,75,0.0,0.0,85,0.00,,,0.00,Wunderground v.1.15,2013-06-23 02:06:00,
2013-06-22 22:11:00,72.1,67.3,30.09,ENE,75,0.0,0.0,85,0.00,,,0.00,Wunderground v.1.15,2013-06-23 02:11:00,
2013-06-22 22:16:00,72.0,67.6,30.09,ENE,75,0.0,0.0,86,0.00,,,0.00,Wunderground v.1.15,2013-06-23 02:16:00,
2013-06-22 22:21:00,71.9,67.5,30.10,ENE,75,0.0,0.0,86,0.00,,,0.00,Wunderground v.1.15,2013-06-23 02:21:00,
2013-06-22 22:27:00,71.7,67.6,30.09,ENE,75,0.0,0.0,87,0.00,,,0.00,Wunderground v.1.15,2013-06-23 02:27:00,
2013-06-22 22:33:00,71.6,67.2,30.10,ENE,75,0.0,0.0,86,0.00,,,0.00,Wunderground v.1.15,2013-06-23 02:33:00,
2013-06-22 22:38:00,71.5,67.4,30.10,ENE,75,0.0,0.0,87,0.00,,,0.00,Wunderground v.1.15,2013-06-23 02:38:00,
2013-06-22 22:43:00,71.4,67.3,30.09,ENE,75,0.0,0.0,87,0.00,,,0.00,Wunderground v.1.15,2013-06-23 02:43:00,
2013-06-22 22:49:00,71.3,67.6,30.09,ENE,75,0.0,0.0,88,0.00,,,0.00,Wunderground v.1.15,2013-06-23 02:49:00,
2013-06-22 22:55:00,71.1,67.4,30.09,ENE,75,0.0,0.0,88,0.00,,,0.00,Wunderground v.1.15,2013-06-23 02:55:00,
2013-06-22 23:00:00,71.0,67.6,30.09,ENE,75,0.0,0.0,89,0.00,,,0.00,Wunderground v.1.15,2013-06-23 03:00:00,
2013-06-22 23:06:00,70.8,67.4,30.10,ENE,75,0.0,0.0,89,0.00,,,0.00,Wunderground v.1.15,2013-06-23 03:06:00,
2013-06-22 23:11:00,70.7,67.3,30.10,ENE,75,0.0,0.0,89,0.00,,,0.00,Wunderground v.1.15,2013-06-23 03:11:00,
2013-06-22 23:16:00,70.5,67.1,30.10,ENE,75,0.0,0.0,89,0.00,,,0.00,Wunderground v.1.15,2013-06-23 03:16:00,
2013-06-22 23:22:00,70.4,67.0,30.10,ENE,75,0.0,0.0,89,0.00,,,0.00,Wunderground v.1.15,2013-06-23 03:22:00,
2013-06-22 23:27:00,70.3,66.9,30.10,ENE,75,0.0,0.0,89,0.00,,,0.00,Wunderground v.1.15,2013-06-23 03:27:00,
2013-06-22 23:33:00,70.2,67.1,30.10,ENE,75,0.0,0.0,90,0.00,,,0.00,Wunderground v.1.15,2013-06-23 03:33:00,
2013-06-22 23:38:00,70.1,67.0,30.10,ENE,75,0.0,0.0,90,0.00,,,0.00,Wunderground v.1.15,2013-06-23 03:38:00,
2013-06-22 23:44:00,70.0,66.9,30.10,ENE,75,0.0,0.0,90,0.00,,,0.00,Wunderground v.1.15,2013-06-23 03:44:00,
2013-06-22 23:49:00,69.9,66.8,30.10,ENE,75,0.0,0.0,90,0.00,,,0.00,Wunderground v.1.15,2013-06-23 03:49:00,
2013-06-22 23:55:00,69.8,67.1,30.11,ENE,75,0.0,0.0,91,0.00,,,0.00,Wunderground v.1.15,2013-06-23 03:55:00,